createdAt,value
2022-11-15T00:01:39.582Z,20.41
2022-11-15T00:04:27.743Z,20.30
2022-11-15T00:07:40.478Z,20.37
2022-11-15T00:10:24.527Z,20.44
2022-11-15T00:13:15.823Z,20.34
2022-11-15T00:16:04.540Z,20.33
2022-11-15T00:18:53.622Z,20.32
2022-11-15T00:21:41.912Z,20.37
2022-11-15T00:24:30.607Z,20.29
2022-11-15T00:27:19.017Z,20.33
2022-11-15T00:30:07.900Z,20.32
2022-11-15T00:32:56.080Z,20.26
2022-11-15T00:35:44.486Z,20.09
2022-11-15T00:38:40.967Z,20.15
2022-11-15T00:41:29.285Z,20.16
2022-11-15T00:44:17.408Z,20.19
2022-11-15T00:47:06.122Z,20.06
2022-11-15T00:49:54.457Z,20.00
2022-11-15T00:52:42.519Z,20.00
2022-11-15T00:55:30.851Z,20.12
2022-11-15T00:58:19.247Z,20.06
2022-11-15T01:01:16.421Z,20.10
2022-11-15T01:04:04.604Z,20.20
2022-11-15T01:06:53.162Z,20.16
2022-11-15T01:09:41.466Z,20.19
2022-11-15T01:12:29.907Z,20.16
2022-11-15T01:15:18.126Z,20.05
2022-11-15T01:18:06.624Z,20.15
2022-11-15T01:20:55.005Z,20.24
2022-11-15T01:23:43.647Z,20.27
2022-11-15T01:26:31.786Z,20.24
2022-11-15T01:29:20.198Z,20.20
2022-11-15T01:32:08.380Z,20.16
2022-11-15T01:34:56.734Z,20.22
2022-11-15T01:37:45.153Z,20.23
2022-11-15T01:40:33.245Z,20.27
2022-11-15T01:43:33.423Z,20.26
2022-11-15T01:46:35.920Z,20.22
2022-11-15T01:49:25.610Z,20.20
2022-11-15T01:52:17.685Z,20.15
2022-11-15T01:55:25.498Z,20.12
2022-11-15T01:58:13.277Z,20.10
2022-11-15T02:01:01.634Z,20.10
2022-11-15T02:04:00.092Z,20.10
2022-11-15T02:06:50.918Z,20.03
2022-11-15T02:09:40.970Z,20.02
2022-11-15T02:12:31.225Z,19.99
2022-11-15T02:15:21.436Z,19.96
2022-11-15T02:18:25.603Z,19.96
2022-11-15T02:21:31.408Z,19.95
2022-11-15T02:24:56.166Z,19.92
2022-11-15T02:28:09.010Z,19.83
2022-11-15T02:31:08.026Z,19.85
2022-11-15T02:34:04.921Z,19.81
2022-11-15T02:37:00.576Z,19.75
2022-11-15T02:40:03.479Z,19.75
2022-11-15T02:43:33.175Z,19.71
2022-11-15T02:46:54.522Z,19.66
2022-11-15T02:49:54.783Z,19.64
2022-11-15T02:52:43.116Z,19.61
2022-11-15T02:55:46.095Z,19.64
2022-11-15T02:58:51.007Z,19.59
2022-11-15T03:02:05.771Z,19.61
2022-11-15T03:05:02.185Z,19.57
2022-11-15T03:08:15.927Z,19.59
2022-11-15T03:11:11.543Z,19.55
2022-11-15T03:14:06.244Z,19.58
2022-11-15T03:17:16.998Z,19.54
2022-11-15T03:20:09.320Z,19.55
2022-11-15T03:23:10.585Z,19.55
2022-11-15T03:26:00.731Z,19.54
2022-11-15T03:28:55.837Z,19.54
2022-11-15T03:31:52.022Z,19.54
2022-11-15T03:34:54.777Z,19.45
2022-11-15T03:37:52.281Z,19.50
2022-11-15T03:40:57.586Z,19.50
2022-11-15T03:44:24.584Z,19.48
2022-11-15T03:47:39.708Z,19.54
2022-11-15T03:50:28.724Z,19.52
2022-11-15T03:53:17.003Z,19.51
2022-11-15T03:56:05.293Z,19.54
2022-11-15T03:58:53.419Z,19.51
2022-11-15T04:01:41.938Z,19.51
2022-11-15T04:04:30.114Z,19.51
2022-11-15T04:07:18.966Z,19.47
2022-11-15T04:10:08.088Z,19.36
2022-11-15T04:12:56.173Z,19.30
2022-11-15T04:15:44.265Z,19.25
2022-11-15T04:18:32.813Z,19.30
2022-11-15T04:21:39.434Z,19.31
2022-11-15T04:24:27.992Z,19.23
2022-11-15T04:27:16.346Z,19.23
2022-11-15T04:30:04.808Z,19.21
2022-11-15T04:32:53.159Z,19.14
2022-11-15T04:35:41.888Z,19.18
2022-11-15T04:38:29.971Z,19.21
2022-11-15T04:41:18.208Z,19.20
2022-11-15T04:44:06.833Z,19.24
2022-11-15T04:46:55.283Z,19.23
2022-11-15T04:49:43.799Z,19.21
2022-11-15T04:52:32.090Z,19.20
2022-11-15T04:55:20.345Z,19.17
2022-11-15T04:58:08.800Z,19.14
2022-11-15T05:00:57.385Z,19.20
2022-11-15T05:04:04.454Z,19.20
2022-11-15T05:06:54.073Z,19.21
2022-11-15T05:09:42.587Z,19.17
2022-11-15T05:12:30.894Z,19.18
2022-11-15T05:15:19.509Z,19.17
2022-11-15T05:18:07.556Z,19.18
2022-11-15T05:20:55.876Z,19.20
2022-11-15T05:23:44.399Z,19.15
2022-11-15T05:26:32.766Z,19.11
2022-11-15T05:29:21.064Z,19.10
2022-11-15T05:32:12.214Z,19.14
2022-11-15T05:35:01.018Z,19.11
2022-11-15T05:37:49.393Z,19.13
2022-11-15T05:40:38.028Z,19.07
2022-11-15T05:43:27.135Z,19.03
2022-11-15T05:46:16.431Z,19.06
2022-11-15T05:49:04.982Z,19.03
2022-11-15T05:51:55.737Z,19.00
2022-11-15T05:54:44.265Z,18.97
2022-11-15T05:57:32.416Z,19.03
2022-11-15T06:00:21.012Z,19.00
2022-11-15T06:03:09.315Z,18.97
2022-11-15T06:05:58.755Z,18.87
2022-11-15T06:08:46.951Z,18.87
2022-11-15T06:11:35.406Z,18.83
2022-11-15T06:14:23.845Z,18.80
2022-11-15T06:17:12.232Z,18.79
2022-11-15T06:20:00.579Z,18.74
2022-11-15T06:22:48.931Z,18.73
2022-11-15T06:25:37.230Z,18.73
2022-11-15T06:28:25.615Z,18.64
2022-11-15T06:31:14.573Z,18.43
2022-11-15T06:34:02.868Z,18.31
2022-11-15T06:36:51.096Z,18.28
2022-11-15T06:39:39.894Z,18.26
2022-11-15T06:42:28.258Z,18.18
2022-11-15T06:45:16.709Z,18.16
2022-11-15T06:48:04.875Z,18.05
2022-11-15T06:50:57.634Z,18.09
2022-11-15T06:53:46.037Z,18.04
2022-11-15T06:56:34.194Z,18.06
2022-11-15T06:59:22.768Z,18.02
2022-11-15T07:02:16.200Z,17.97
2022-11-15T07:05:04.381Z,17.94
2022-11-15T07:07:56.841Z,18.06
2022-11-15T07:10:44.850Z,18.18
2022-11-15T07:13:38.414Z,18.24
2022-11-15T07:16:26.940Z,18.31
2022-11-15T07:19:15.618Z,18.38
2022-11-15T07:22:03.498Z,18.32
2022-11-15T07:24:51.901Z,18.29
2022-11-15T07:27:40.672Z,18.42
2022-11-15T07:30:30.189Z,18.45
2022-11-15T07:33:18.443Z,18.38
2022-11-15T07:36:08.839Z,18.43
2022-11-15T07:38:57.004Z,18.51
2022-11-15T07:41:46.160Z,18.53
2022-11-15T07:44:34.186Z,18.59
2022-11-15T07:47:22.898Z,18.60
2022-11-15T07:50:11.619Z,18.53
2022-11-15T07:53:01.353Z,18.59
2022-11-15T07:55:49.316Z,18.64
2022-11-15T07:58:38.219Z,18.62
2022-11-15T08:01:26.803Z,18.76
2022-11-15T08:04:15.559Z,18.72
2022-11-15T08:07:03.905Z,18.73
2022-11-15T08:09:52.520Z,18.76
2022-11-15T08:12:40.842Z,18.77
2022-11-15T08:15:29.894Z,18.82
2022-11-15T08:18:18.981Z,18.80
2022-11-15T08:21:07.586Z,18.74
2022-11-15T08:23:58.551Z,18.62
2022-11-15T08:26:47.515Z,18.45
2022-11-15T08:29:35.842Z,18.51
2022-11-15T08:32:24.196Z,18.48
2022-11-15T08:35:12.802Z,18.33
2022-11-15T08:38:01.383Z,18.38
2022-11-15T08:40:49.719Z,18.41
2022-11-15T08:43:38.486Z,18.42
2022-11-15T08:46:26.834Z,18.41
2022-11-15T08:49:15.780Z,18.31
2022-11-15T08:52:04.104Z,18.31
2022-11-15T08:54:52.395Z,18.21
2022-11-15T08:57:40.873Z,18.19
2022-11-15T09:00:29.240Z,18.25
2022-11-15T09:03:17.695Z,18.31
2022-11-15T09:06:06.518Z,18.42
2022-11-15T09:08:54.829Z,18.51
2022-11-15T09:11:43.812Z,18.64
2022-11-15T09:14:32.328Z,18.69
2022-11-15T09:17:24.711Z,18.77
2022-11-15T09:20:13.740Z,18.84
2022-11-15T09:23:03.677Z,18.92
2022-11-15T09:25:52.209Z,19.00
2022-11-15T09:28:43.934Z,19.10
2022-11-15T09:31:32.314Z,19.17
2022-11-15T09:34:20.788Z,19.24
2022-11-15T09:37:08.872Z,19.30
2022-11-15T09:39:57.277Z,19.38
2022-11-15T09:43:06.105Z,19.44
2022-11-15T09:46:03.530Z,19.57
2022-11-15T09:49:04.374Z,19.65
2022-11-15T09:51:57.406Z,19.71
2022-11-15T09:54:55.871Z,19.78
2022-11-15T09:57:51.477Z,19.85
2022-11-15T10:00:45.232Z,19.92
2022-11-15T10:03:23.512Z,20.02
2022-11-15T10:05:58.206Z,20.08
2022-11-15T10:08:55.183Z,20.16
2022-11-15T10:11:38.958Z,20.26
2022-11-15T10:14:23.572Z,20.34
2022-11-15T10:17:31.950Z,20.46
2022-11-15T10:20:28.895Z,20.57
2022-11-15T10:23:01.798Z,20.67
2022-11-15T10:25:41.001Z,20.77
2022-11-15T10:28:28.983Z,20.84
2022-11-15T10:31:01.653Z,20.95
2022-11-15T10:33:43.334Z,21.05
2022-11-15T10:36:18.894Z,21.14
2022-11-15T10:38:52.198Z,21.29
2022-11-15T10:41:29.949Z,21.42
2022-11-15T10:44:27.636Z,21.49
2022-11-15T10:46:58.114Z,21.66
2022-11-15T10:49:33.124Z,21.76
2022-11-15T10:52:16.956Z,21.86
2022-11-15T10:55:15.604Z,21.98
2022-11-15T10:57:54.806Z,22.06
2022-11-15T11:00:43.926Z,22.14
2022-11-15T11:03:32.885Z,22.30
2022-11-15T11:06:12.595Z,22.35
2022-11-15T11:08:50.294Z,22.43
2022-11-15T11:11:20.606Z,22.54
2022-11-15T11:13:51.685Z,22.65
2022-11-15T11:17:09.293Z,22.73
2022-11-15T11:19:46.959Z,22.82
2022-11-15T11:22:35.444Z,22.85
2022-11-15T11:25:11.514Z,22.94
2022-11-15T11:27:53.243Z,22.95
2022-11-15T11:30:31.935Z,23.03
2022-11-15T11:33:13.486Z,23.13
2022-11-15T11:36:07.241Z,23.27
2022-11-15T11:38:43.807Z,23.40
2022-11-15T11:41:35.399Z,23.47
2022-11-15T11:44:23.691Z,23.53
2022-11-15T11:47:06.685Z,23.67
2022-11-15T11:49:53.082Z,23.77
2022-11-15T11:52:33.066Z,23.81
2022-11-15T11:55:27.500Z,23.93
2022-11-15T11:58:31.413Z,23.98
2022-11-15T12:01:13.451Z,23.96
2022-11-15T12:03:52.199Z,24.02
2022-11-15T12:07:00.259Z,24.05
2022-11-15T12:09:37.935Z,24.09
2022-11-15T12:12:12.379Z,24.26
2022-11-15T12:14:47.558Z,24.40
2022-11-15T12:17:20.783Z,24.42
2022-11-15T12:19:51.560Z,24.58
2022-11-15T12:22:44.484Z,24.72
2022-11-15T12:25:31.091Z,24.56
2022-11-15T12:28:16.525Z,24.76
2022-11-15T12:31:38.298Z,24.82
2022-11-15T12:34:31.196Z,24.93
2022-11-15T12:37:01.533Z,24.96
2022-11-15T12:40:05.464Z,25.06
2022-11-15T12:42:59.479Z,25.40
2022-11-15T12:45:43.746Z,25.30
2022-11-15T12:48:40.301Z,25.38
2022-11-15T12:51:10.517Z,25.48
2022-11-15T12:53:41.442Z,25.45
2022-11-15T12:56:20.819Z,25.44
2022-11-15T12:59:07.613Z,25.60
2022-11-15T13:02:00.443Z,25.67
2022-11-15T13:04:32.464Z,25.68
2022-11-15T13:07:09.787Z,25.62
2022-11-15T13:09:40.028Z,25.64
2022-11-15T13:12:29.542Z,25.71
2022-11-15T13:15:14.798Z,25.85
2022-11-15T13:17:56.051Z,25.96
2022-11-15T13:20:26.793Z,25.81
2022-11-15T13:23:14.536Z,25.95
2022-11-15T13:26:24.294Z,26.29
2022-11-15T13:28:57.044Z,26.20
2022-11-15T13:31:42.937Z,26.16
2022-11-15T13:34:54.987Z,26.15
2022-11-15T13:37:25.206Z,26.28
2022-11-15T13:39:55.627Z,26.53
2022-11-15T13:42:30.977Z,26.49
2022-11-15T13:45:07.015Z,26.65
2022-11-15T13:47:37.579Z,26.83
2022-11-15T13:50:12.079Z,26.87
2022-11-15T13:52:45.746Z,27.16
2022-11-15T13:55:22.107Z,27.18
2022-11-15T13:57:59.532Z,27.34
2022-11-15T14:00:30.000Z,27.24
2022-11-15T14:03:07.102Z,27.37
2022-11-15T14:05:37.510Z,27.22
2022-11-15T14:08:26.119Z,27.37
2022-11-15T14:11:12.990Z,27.49
2022-11-15T14:13:43.302Z,27.49
2022-11-15T14:16:17.565Z,27.62
2022-11-15T14:18:49.823Z,27.65
2022-11-15T14:21:21.755Z,27.46
2022-11-15T14:23:52.856Z,27.66
2022-11-15T14:26:37.369Z,27.58
2022-11-15T14:29:41.425Z,27.67
2022-11-15T14:32:30.290Z,27.65
2022-11-15T14:35:06.163Z,27.76
2022-11-15T14:37:37.185Z,27.85
2022-11-15T14:40:11.800Z,27.70
2022-11-15T14:42:42.078Z,27.88
2022-11-15T14:45:23.985Z,28.12
2022-11-15T14:47:54.245Z,28.34
2022-11-15T14:50:24.934Z,28.12
2022-11-15T14:52:55.192Z,28.23
2022-11-15T14:55:25.908Z,28.30
2022-11-15T14:57:56.092Z,28.10
2022-11-15T15:00:27.836Z,28.20
2022-11-15T15:03:01.641Z,28.39
2022-11-15T15:05:46.010Z,28.48
2022-11-15T15:08:16.317Z,28.10
2022-11-15T15:10:48.455Z,28.33
2022-11-15T15:13:26.538Z,28.44
2022-11-15T15:15:56.740Z,28.61
2022-11-15T15:18:26.925Z,28.69
2022-11-15T15:21:04.686Z,28.74
2022-11-15T15:23:35.092Z,27.97
2022-11-15T15:26:06.079Z,27.97
2022-11-15T15:28:37.590Z,28.75
2022-11-15T15:31:08.724Z,28.99
2022-11-15T15:33:39.721Z,28.78
2022-11-15T15:36:19.579Z,28.30
2022-11-15T15:38:49.821Z,28.84
2022-11-15T15:41:20.442Z,29.12
2022-11-15T15:43:50.740Z,29.35
2022-11-15T15:46:22.564Z,29.39
2022-11-15T15:48:52.959Z,28.99
2022-11-15T15:51:23.178Z,28.88
2022-11-15T15:53:54.865Z,28.16
2022-11-15T15:56:25.670Z,27.69
2022-11-15T15:58:57.608Z,28.69
2022-11-15T16:01:28.033Z,28.94
2022-11-15T16:03:58.371Z,29.25
2022-11-15T16:06:41.426Z,29.20
2022-11-15T16:09:19.762Z,29.33
2022-11-15T16:11:50.408Z,29.49
2022-11-15T16:14:20.554Z,29.49
2022-11-15T16:16:50.752Z,29.12
2022-11-15T16:19:20.258Z,29.35
2022-11-15T16:21:50.459Z,29.60
2022-11-15T16:24:21.996Z,29.76
2022-11-15T16:26:53.247Z,29.77
2022-11-15T16:29:23.711Z,30.08
2022-11-15T16:31:53.951Z,29.88
2022-11-15T16:34:25.793Z,29.37
2022-11-15T16:36:58.374Z,29.70
2022-11-15T16:39:30.060Z,30.03
2022-11-15T16:42:01.882Z,29.70
2022-11-15T16:44:32.155Z,29.74
2022-11-15T16:47:03.767Z,29.77
2022-11-15T16:49:34.030Z,30.21
2022-11-15T16:52:04.257Z,29.80
2022-11-15T16:54:34.529Z,29.64
2022-11-15T16:57:05.230Z,30.00
2022-11-15T16:59:38.342Z,30.07
2022-11-15T17:02:14.425Z,29.59
2022-11-15T17:04:44.690Z,29.96
2022-11-15T17:07:14.916Z,29.96
2022-11-15T17:09:45.126Z,29.83
2022-11-15T17:12:15.751Z,29.32
2022-11-15T17:14:47.360Z,29.59
2022-11-15T17:17:17.627Z,30.00
2022-11-15T17:19:47.675Z,29.70
2022-11-15T17:22:18.011Z,29.70
2022-11-15T17:24:48.375Z,29.73
2022-11-15T17:27:18.848Z,29.35
2022-11-15T17:29:49.317Z,29.46
2022-11-15T17:32:19.601Z,29.56
2022-11-15T17:34:49.844Z,29.72
2022-11-15T17:37:20.096Z,29.84
2022-11-15T17:39:50.227Z,29.46
2022-11-15T17:42:20.451Z,29.49
2022-11-15T17:44:50.648Z,29.22
2022-11-15T17:47:21.028Z,29.54
2022-11-15T17:49:51.209Z,29.59
2022-11-15T17:52:21.407Z,29.84
2022-11-15T17:54:51.675Z,29.64
2022-11-15T17:57:22.210Z,29.60
2022-11-15T17:59:52.423Z,29.74
2022-11-15T18:02:22.736Z,29.56
2022-11-15T18:04:53.002Z,29.98
2022-11-15T18:07:23.374Z,29.85
2022-11-15T18:09:53.700Z,29.91
2022-11-15T18:12:24.050Z,29.97
2022-11-15T18:14:54.603Z,29.66
2022-11-15T18:17:25.445Z,29.83
2022-11-15T18:19:55.691Z,29.54
2022-11-15T18:22:26.267Z,29.62
2022-11-15T18:24:56.636Z,29.93
2022-11-15T18:27:27.140Z,29.83
2022-11-15T18:29:57.552Z,29.87
2022-11-15T18:32:27.771Z,29.94
2022-11-15T18:34:58.048Z,29.80
2022-11-15T18:37:28.329Z,29.69
2022-11-15T18:39:58.401Z,29.80
2022-11-15T18:42:28.927Z,29.84
2022-11-15T18:44:59.213Z,29.85
2022-11-15T18:47:31.128Z,29.97
2022-11-15T18:50:01.339Z,29.83
2022-11-15T18:52:31.609Z,29.69
2022-11-15T18:55:01.848Z,29.53
2022-11-15T18:57:32.689Z,30.07
2022-11-15T19:00:02.700Z,30.17
2022-11-15T19:02:32.786Z,30.49
2022-11-15T19:05:02.827Z,30.66
2022-11-15T19:07:33.010Z,30.62
2022-11-15T19:10:03.272Z,30.03
2022-11-15T19:12:33.504Z,29.77
2022-11-15T19:15:07.599Z,29.64
2022-11-15T19:17:40.265Z,29.46
2022-11-15T19:20:11.016Z,29.37
2022-11-15T19:22:41.462Z,29.36
2022-11-15T19:25:12.229Z,29.29
2022-11-15T19:27:42.498Z,29.13
2022-11-15T19:30:13.146Z,29.05
2022-11-15T19:32:43.491Z,29.15
2022-11-15T19:35:13.635Z,29.46
2022-11-15T19:37:43.916Z,29.42
2022-11-15T19:40:14.174Z,29.23
2022-11-15T19:42:44.151Z,28.90
2022-11-15T19:45:14.436Z,29.08
2022-11-15T19:47:44.675Z,29.01
2022-11-15T19:50:14.891Z,29.05
2022-11-15T19:52:45.247Z,29.12
2022-11-15T19:55:15.433Z,28.98
2022-11-15T19:57:46.030Z,28.91
2022-11-15T20:00:16.423Z,28.62
2022-11-15T20:02:46.699Z,28.82
2022-11-15T20:05:18.504Z,28.78
2022-11-15T20:07:52.325Z,28.81
2022-11-15T20:10:22.532Z,28.74
2022-11-15T20:12:52.798Z,28.65
2022-11-15T20:15:23.008Z,28.67
2022-11-15T20:17:53.231Z,28.51
2022-11-15T20:20:23.489Z,28.69
2022-11-15T20:22:54.394Z,28.72
2022-11-15T20:25:24.566Z,28.68
2022-11-15T20:27:54.743Z,28.68
2022-11-15T20:30:24.914Z,28.58
2022-11-15T20:32:55.153Z,28.64
2022-11-15T20:35:25.422Z,28.79
2022-11-15T20:37:55.665Z,28.99
2022-11-15T20:40:25.966Z,28.72
2022-11-15T20:42:56.615Z,28.40
2022-11-15T20:45:26.921Z,28.17
2022-11-15T20:47:58.435Z,28.10
2022-11-15T20:50:42.307Z,28.13
2022-11-15T20:53:16.477Z,28.10
2022-11-15T20:55:49.531Z,28.00
2022-11-15T20:58:20.413Z,27.94
2022-11-15T21:00:50.919Z,27.85
2022-11-15T21:03:21.302Z,27.74
2022-11-15T21:05:54.220Z,27.73
2022-11-15T21:08:24.599Z,27.66
2022-11-15T21:11:13.844Z,27.55
2022-11-15T21:13:44.432Z,27.51
2022-11-15T21:16:14.926Z,27.46
2022-11-15T21:18:45.275Z,27.39
2022-11-15T21:21:16.325Z,27.30
2022-11-15T21:23:46.558Z,27.25
2022-11-15T21:26:16.639Z,27.14
2022-11-15T21:28:46.908Z,27.05
2022-11-15T21:31:17.212Z,26.95
2022-11-15T21:33:47.413Z,26.77
2022-11-15T21:36:17.824Z,26.73
2022-11-15T21:38:48.095Z,26.63
2022-11-15T21:41:18.346Z,26.87
2022-11-15T21:43:48.769Z,26.74
2022-11-15T21:46:19.325Z,26.49
2022-11-15T21:48:49.616Z,26.32
2022-11-15T21:51:19.889Z,26.30
2022-11-15T21:53:50.327Z,26.15
2022-11-15T21:56:20.254Z,25.92
2022-11-15T21:58:51.251Z,25.79
2022-11-15T22:01:40.455Z,25.67
2022-11-15T22:04:10.775Z,25.58
2022-11-15T22:06:41.186Z,25.55
2022-11-15T22:09:11.567Z,25.47
2022-11-15T22:11:41.825Z,25.42
2022-11-15T22:14:12.495Z,25.37
2022-11-15T22:16:42.357Z,25.31
2022-11-15T22:19:12.601Z,25.20
2022-11-15T22:21:42.844Z,25.13
2022-11-15T22:24:12.597Z,25.06
2022-11-15T22:26:42.502Z,25.00
2022-11-15T22:29:12.045Z,24.94
2022-11-15T22:31:42.119Z,24.84
2022-11-15T22:34:12.232Z,24.76
2022-11-15T22:37:18.313Z,24.69
2022-11-15T22:39:37.084Z,24.59
2022-11-15T22:42:07.361Z,24.56
2022-11-15T22:44:37.532Z,24.53
2022-11-15T22:47:07.762Z,24.48
2022-11-15T22:49:37.946Z,24.48
2022-11-15T22:52:08.332Z,24.40
2022-11-15T22:54:38.536Z,24.40
2022-11-15T22:57:09.140Z,24.38
2022-11-15T22:59:39.361Z,24.30
2022-11-15T23:02:08.854Z,24.28
2022-11-15T23:04:39.036Z,24.24
2022-11-15T23:07:09.358Z,24.18
2022-11-15T23:09:39.662Z,24.18
2022-11-15T23:12:30.638Z,24.11
2022-11-15T23:15:01.016Z,24.02
2022-11-15T23:17:32.315Z,24.00
2022-11-15T23:20:16.707Z,23.90
2022-11-15T23:22:52.818Z,23.80
2022-11-15T23:25:22.841Z,23.73
2022-11-15T23:27:52.821Z,23.71
2022-11-15T23:30:48.639Z,23.68
2022-11-15T23:33:37.114Z,23.64
2022-11-15T23:36:08.051Z,23.58
2022-11-15T23:38:38.995Z,23.51
2022-11-15T23:41:09.453Z,23.49
2022-11-15T23:43:39.701Z,23.40
2022-11-15T23:46:09.996Z,23.29
2022-11-15T23:48:40.545Z,23.06
2022-11-15T23:51:10.733Z,22.95
2022-11-15T23:53:41.129Z,22.98
2022-11-15T23:56:16.723Z,23.03
2022-11-15T23:58:48.264Z,23.12
